Caesar, Mississippi
Current Conditions -  °F | °C
As of 3:20 AM on Monday 22 Dec 2014 (Local Time) from KASD Reporting Station
Haze Haze  
Wind Chill: 57°   Ceiling: 200
Heat Index: 57°   Visibility: 2.5mi
Dew Point: 55°   Wind: 7mph
Humidity: 93%   Direction: 120°ESE
Pressure: 29.87"   Gusts: NA
Location:  30.5854°N, 89.6932°W
Report Text: KASD 220920Z AUTO 12006KT 2 1/2SM BR OVC002 14/13 A2987 RMK AO2 T01390128
Loading
Personal Weather Stations






























Interactive Weather Map New forecast layout! Learn more

10-Day Weather Forecast

Advertisements
Track Severe Weather on mobile